Latest Weather Observations for Arlington Reef

IDQ60801

Issued at 5:05 pm EST Saturday 26 July 2014 (issued every 30 minutes, with the page automatically refreshed every 10 minutes)

About weather observations | Map of weather stations | Latest weather observations for QLD | Other Formats
Station Details ID: 200879 Name: ARLINGTON REEF Lat: -16.72 Lon: 146.11 Height: 0.0 m
Data from the previous 72 hours. | See also: Recent months at Arlington Reef
Date/Time
EST
Temp
°C
App
Temp
°C
Dew
Point
Rel
Hum
%
Delta-T
°C
Wind Press
QNH
hPa
Press
MSL
hPa
Rain
since 9 am
mm
Dir
 
Spd
km/h
Gust
km/h
Spd
kts
Gust
kts
26/05:00pm - - - - - SSE 33 39 18 21 1019.7 1019.7 -
26/04:30pm - - - - - SSE 37 43 20 23 1019.5 - -
26/04:00pm - - - - - SSE 35 43 19 23 1019.2 1019.2 -
26/03:30pm - - - - - SSE 32 41 17 22 1019.2 - -
26/03:00pm - - - - - SSE 32 41 17 22 1019.3 1019.3 -
26/02:30pm - - - - - SSE 35 39 19 21 1019.6 - -
26/02:00pm - - - - - S 32 39 17 21 1019.9 1019.9 -
26/01:30pm - - - - - S 35 43 19 23 1019.8 - -
26/01:00pm - - - - - S 33 41 18 22 1020.0 1020.0 -
26/12:30pm - - - - - SSE 33 39 18 21 1020.3 - -
26/12:00pm - - - - - SSE 33 39 18 21 1020.8 1020.8 -
26/11:30am - - - - - SSE 35 41 19 22 1021.0 - -
26/11:00am - - - - - SSE 35 43 19 23 1021.3 1021.3 -
26/10:30am - - - - - SSE 35 41 19 22 1021.7 - -
26/10:00am - - - - - SSE 35 43 19 23 1021.8 1021.8 -
26/09:30am - - - - - SSE 37 44 20 24 1021.6 - -
26/09:00am - - - - - SSE 37 44 20 24 1021.4 1021.4 -
26/08:30am - - - - - SSE 35 41 19 22 1021.1 - -
26/08:00am - - - - - SSE 33 39 18 21 1020.8 1020.8 -
26/07:30am - - - - - SE 33 37 18 20 1020.8 - -
26/07:00am - - - - - SE 37 44 20 24 1020.5 1020.5 -
26/06:30am - - - - - SE 33 41 18 22 1020.2 - -
26/06:00am - - - - - SE 30 37 16 20 1020.2 1020.2 -
26/05:39am - - - - - SE 30 46 16 25 1019.9 - -
26/05:30am - - - - - S 22 26 12 14 1020.0 - -
26/05:00am - - - - - S 28 33 15 18 1019.8 1019.8 -
26/04:30am - - - - - S 33 41 18 22 1019.6 - -
26/04:00am - - - - - S 32 39 17 21 1019.7 1019.7 -
26/03:30am - - - - - S 33 43 18 23 1019.7 - -
26/03:00am - - - - - S 30 33 16 18 1020.0 1020.0 -
26/02:30am - - - - - S 26 30 14 16 1019.9 - -
26/02:00am - - - - - SSE 30 37 16 20 1020.1 1020.1 -
26/01:30am - - - - - SSE 37 43 20 23 1020.4 - -
26/01:00am - - - - - S 33 39 18 21 1020.4 1020.4 -
26/12:30am - - - - - SSE 24 28 13 15 1021.0 - -
26/12:00am - - - - - SSE 28 32 15 17 1021.2 1021.2 -
 
Date/Time
EST
Temp
°C
App
Temp
°C
Dew
Point
Rel
Hum
%
Delta-T
°C
Wind Press
QNH
hPa
Press
MSL
hPa
Rain
since 9 am
mm
Dir
 
Spd
km/h
Gust
km/h
Spd
kts
Gust
kts
25/11:30pm - - - - - SE 30 35 16 19 1021.4 - -
25/11:00pm - - - - - ESE 24 32 13 17 1021.8 1021.8 -
25/10:30pm - - - - - SSE 28 33 15 18 1021.8 - -
25/10:00pm - - - - - SE 28 33 15 18 1021.8 1021.8 -
25/09:30pm - - - - - SE 32 41 17 22 1021.5 - -
25/09:00pm - - - - - SE 30 37 16 20 1021.5 1021.5 -
25/08:30pm - - - - - SE 32 37 17 20 1021.3 - -
25/08:00pm - - - - - SE 33 39 18 21 1020.9 1020.9 -
25/07:30pm - - - - - SE 35 41 19 22 1020.2 - -
25/07:00pm - - - - - ESE 35 41 19 22 1019.8 1019.8 -
25/06:30pm - - - - - SE 30 35 16 19 1019.4 - -
25/06:00pm - - - - - SE 30 33 16 18 1019.1 1019.1 -
25/05:30pm - - - - - ESE 28 33 15 18 1018.8 - -
25/05:00pm - - - - - ESE 30 35 16 19 1018.8 1018.8 -
25/04:30pm - - - - - SE 32 35 17 19 1018.6 - -
25/04:00pm - - - - - ESE 32 37 17 20 1018.2 1018.2 -
25/03:30pm - - - - - ESE 32 35 17 19 1018.3 - -
25/03:00pm - - - - - ESE 33 39 18 21 1018.2 1018.2 -
25/02:30pm - - - - - ESE 32 37 17 20 1018.4 - -
25/02:00pm - - - - - E 32 35 17 19 1018.6 1018.6 -
25/01:30pm - - - - - ESE 32 37 17 20 1018.9 - -
25/01:00pm - - - - - ESE 33 39 18 21 1019.2 1019.2 -
25/12:30pm - - - - - ESE 30 37 16 20 1019.5 - -
25/12:00pm - - - - - ESE 32 35 17 19 1019.7 1019.7 -
25/11:30am - - - - - ESE 33 41 18 22 1020.0 - -
25/11:00am - - - - - ESE 32 37 17 20 1020.1 1020.1 -
25/10:30am - - - - - E 35 41 19 22 1020.1 - -
25/10:00am - - - - - E 33 43 18 23 1020.0 1020.0 -
25/09:30am - - - - - ESE 33 39 18 21 1019.9 - -
25/09:00am - - - - - E 35 41 19 22 1019.9 1019.9 -
25/08:30am - - - - - E 32 37 17 20 1019.7 - -
25/08:00am - - - - - E 33 39 18 21 1019.3 1019.3 -
25/07:30am - - - - - E 30 37 16 20 1019.0 - -
25/07:00am - - - - - E 32 39 17 21 1018.5 1018.5 -
25/06:30am - - - - - SE 24 32 13 17 1018.2 - -
25/06:00am - - - - - SE 19 30 10 16 1018.1 1018.1 -
25/05:30am - - - - - S 20 24 11 13 1017.6 - -
25/05:00am - - - - - S 20 24 11 13 1017.4 1017.4 -
25/04:30am - - - - - S 24 30 13 16 1017.5 - -
25/04:00am - - - - - S 20 24 11 13 1017.4 1017.4 -
25/03:30am - - - - - S 17 19 9 10 1017.4 - -
25/02:00am - - - - - SE 20 24 11 13 1017.6 1017.6 -
25/01:30am - - - - - ESE 22 26 12 14 1017.7 - -
25/01:00am - - - - - SE 22 30 12 16 1017.9 1017.9 -
25/12:39am - - - - - SSE 28 46 15 25 1018.1 - -
25/12:00am - - - - - SSE 24 30 13 16 1018.4 1018.4 -
 
Date/Time
EST
Temp
°C
App
Temp
°C
Dew
Point
Rel
Hum
%
Delta-T
°C
Wind Press
QNH
hPa
Press
MSL
hPa
Rain
since 9 am
mm
Dir
 
Spd
km/h
Gust
km/h
Spd
kts
Gust
kts
24/11:30pm - - - - - SSE 24 30 13 16 1018.5 - -
24/11:00pm - - - - - SSE 26 32 14 17 1018.6 1018.6 -
24/10:30pm - - - - - SE 28 32 15 17 1018.7 - -
24/10:00pm - - - - - SSE 26 30 14 16 1018.8 1018.8 -
24/09:30pm - - - - - SSE 30 35 16 19 1018.7 - -
24/09:00pm - - - - - SSE 24 28 13 15 1018.5 1018.5 -
24/08:30pm - - - - - S 22 26 12 14 1018.4 - -
24/08:00pm - - - - - S 26 30 14 16 1018.0 1018.0 -
24/07:30pm - - - - - S 24 28 13 15 1017.7 - -
24/07:00pm - - - - - S 22 28 12 15 1017.4 1017.4 -
24/06:30pm - - - - - S 22 26 12 14 1017.0 - -
24/06:00pm - - - - - S 22 26 12 14 1016.7 1016.7 -
24/05:30pm - - - - - S 22 26 12 14 1016.3 - -
24/05:00pm - - - - - S 20 24 11 13 1016.1 1016.1 -
24/04:30pm - - - - - S 19 22 10 12 1016.0 - -
24/04:00pm - - - - - S 20 24 11 13 1015.9 1015.9 -
24/03:30pm - - - - - S 19 22 10 12 1015.9 - -
24/03:00pm - - - - - S 17 20 9 11 1015.9 1015.9 -
24/02:30pm - - - - - S 19 20 10 11 1016.1 - -
24/02:00pm - - - - - S 20 22 11 12 1016.4 1016.4 -
24/01:30pm - - - - - S 15 19 8 10 1016.8 - -
24/01:00pm - - - - - S 20 24 11 13 1017.0 1017.0 -
24/12:30pm - - - - - S 24 32 13 17 1017.4 - -
24/12:00pm - - - - - S 26 28 14 15 1017.7 1017.7 -
24/11:30am - - - - - S 30 33 16 18 1017.7 - -
24/11:00am - - - - - S 28 32 15 17 1017.9 1017.9 -
24/10:30am - - - - - S 28 33 15 18 1018.0 - -
24/10:00am - - - - - S 28 32 15 17 1018.0 1018.0 -
24/09:30am - - - - - S 26 32 14 17 1017.9 - -
24/09:00am - - - - - S 22 26 12 14 1017.6 1017.6 -
24/08:30am - - - - - S 22 26 12 14 1017.2 - -
24/08:00am - - - - - SSE 22 32 12 17 1016.8 1016.8 -
24/07:30am - - - - - SE 22 28 12 15 1016.4 - -
24/07:00am - - - - - SE 24 32 13 17 1016.1 1016.1 -
24/06:30am - - - - - SE 26 30 14 16 1015.9 - -
24/06:00am - - - - - SE 26 33 14 18 1015.7 1015.7 -
24/05:30am - - - - - SE 26 32 14 17 1015.6 - -
24/05:00am - - - - - SE 26 30 14 16 1015.5 1015.5 -
24/04:30am - - - - - SE 26 33 14 18 1015.5 - -
24/04:00am - - - - - SE 26 32 14 17 1015.5 1015.5 -
24/03:30am - - - - - SE 26 32 14 17 1015.5 - -
24/03:00am - - - - - SE 24 30 13 16 1015.7 1015.7 -
24/02:30am - - - - - ESE 24 28 13 15 1015.9 - -
24/02:00am - - - - - SE 26 30 14 16 1016.2 1016.2 -
24/01:30am - - - - - SE 26 32 14 17 1016.6 - -
24/01:00am - - - - - SE 24 30 13 16 1017.1 1017.1 -
24/12:30am - - - - - SE 24 30 13 16 1017.2 - -
24/12:00am - - - - - SSE 24 28 13 15 1017.5 1017.5 -
 
Date/Time
EST
Temp
°C
App
Temp
°C
Dew
Point
Rel
Hum
%
Delta-T
°C
Wind Press
QNH
hPa
Press
MSL
hPa
Rain
since 9 am
mm
Dir
 
Spd
km/h
Gust
km/h
Spd
kts
Gust
kts
23/11:30pm - - - - - SE 26 30 14 16 1017.5 - -
23/11:00pm - - - - - SE 24 33 13 18 1017.6 1017.6 -
23/10:30pm - - - - - SSE 28 32 15 17 1017.6 - -
23/10:00pm - - - - - SE 30 35 16 19 1017.6 1017.6 -
23/09:30pm - - - - - SSE 33 41 18 22 1017.5 - -
23/09:00pm - - - - - SSE 32 37 17 20 1017.4 1017.4 -
23/08:30pm - - - - - SSE 32 37 17 20 1017.1 - -
23/08:00pm - - - - - SSE 32 37 17 20 1016.9 1016.9 -
23/07:30pm - - - - - SSE 33 39 18 21 1016.6 - -
23/07:00pm - - - - - SE 32 37 17 20 1016.3 1016.3 -
23/06:30pm - - - - - SSE 32 37 17 20 1016.1 - -
23/06:00pm - - - - - SSE 32 37 17 20 1015.9 1015.9 -
23/05:30pm - - - - - SE 30 37 16 20 1015.6 - -

Other Formats:

Comma delimited format used in spreadsheet applications
http://www.bom.gov.au/fwo/IDQ60801/IDQ60801.94284.axf

JavaScript Object Notation format (JSON) in row-major order
http://www.bom.gov.au/fwo/IDQ60801/IDQ60801.94284.json